sensor_id;sensor_type;location;lat;lon;timestamp;P1;durP1;ratioP1;P2;durP2;ratioP2
58460;SDS011;45558;37.752;-97.822;2023-07-09T00:02:20;11.45;;;2.10;;
58460;SDS011;45558;37.752;-97.822;2023-07-09T00:04:47;14.05;;;2.30;;
58460;SDS011;45558;37.752;-97.822;2023-07-09T00:07:18;14.00;;;2.50;;
58460;SDS011;45558;37.752;-97.822;2023-07-09T00:09:43;11.30;;;3.03;;
58460;SDS011;45558;37.752;-97.822;2023-07-09T00:12:12;10.77;;;1.95;;
58460;SDS011;45558;37.752;-97.822;2023-07-09T00:14:38;20.77;;;3.00;;
58460;SDS011;45558;37.752;-97.822;2023-07-09T00:17:07;15.95;;;3.65;;
58460;SDS011;45558;37.752;-97.822;2023-07-09T00:21:59;15.50;;;2.35;;
58460;SDS011;45558;37.752;-97.822;2023-07-09T00:24:25;12.02;;;2.28;;
58460;SDS011;45558;37.752;-97.822;2023-07-09T00:26:52;27.80;;;2.60;;
58460;SDS011;45558;37.752;-97.822;2023-07-09T00:29:17;18.58;;;2.97;;
58460;SDS011;45558;37.752;-97.822;2023-07-09T00:31:43;21.33;;;2.80;;
58460;SDS011;45558;37.752;-97.822;2023-07-09T00:34:09;19.20;;;3.45;;
58460;SDS011;45558;37.752;-97.822;2023-07-09T00:36:38;18.83;;;2.67;;
58460;SDS011;45558;37.752;-97.822;2023-07-09T00:39:09;17.63;;;2.40;;
58460;SDS011;45558;37.752;-97.822;2023-07-09T00:41:43;15.48;;;2.65;;
58460;SDS011;45558;37.752;-97.822;2023-07-09T00:49:30;30.20;;;2.50;;
58460;SDS011;45558;37.752;-97.822;2023-07-09T00:51:58;16.55;;;2.38;;
58460;SDS011;45558;37.752;-97.822;2023-07-09T00:54:32;17.40;;;2.03;;
58460;SDS011;45558;37.752;-97.822;2023-07-09T00:57:10;21.13;;;2.85;;
58460;SDS011;45558;37.752;-97.822;2023-07-09T00:59:42;11.23;;;2.20;;
58460;SDS011;45558;37.752;-97.822;2023-07-09T01:02:07;17.10;;;3.30;;
58460;SDS011;45558;37.752;-97.822;2023-07-09T01:04:33;34.42;;;2.83;;
58460;SDS011;45558;37.752;-97.822;2023-07-09T01:06:59;22.58;;;3.20;;
58460;SDS011;45558;37.752;-97.822;2023-07-09T01:09:25;14.20;;;2.15;;
58460;SDS011;45558;37.752;-97.822;2023-07-09T01:11:51;18.05;;;3.88;;
58460;SDS011;45558;37.752;-97.822;2023-07-09T01:14:21;13.65;;;2.03;;
58460;SDS011;45558;37.752;-97.822;2023-07-09T01:16:53;21.70;;;3.33;;
58460;SDS011;45558;37.752;-97.822;2023-07-09T01:19:25;21.85;;;2.40;;
58460;SDS011;45558;37.752;-97.822;2023-07-09T01:21:56;11.85;;;2.80;;
58460;SDS011;45558;37.752;-97.822;2023-07-09T01:27:24;15.10;;;3.75;;
58460;SDS011;45558;37.752;-97.822;2023-07-09T01:29:53;20.55;;;2.75;;
58460;SDS011;45558;37.752;-97.822;2023-07-09T01:32:19;18.75;;;2.63;;
58460;SDS011;45558;37.752;-97.822;2023-07-09T01:34:48;16.23;;;3.03;;
58460;SDS011;45558;37.752;-97.822;2023-07-09T01:37:18;26.00;;;3.60;;
58460;SDS011;45558;37.752;-97.822;2023-07-09T01:39:47;26.92;;;3.83;;
58460;SDS011;45558;37.752;-97.822;2023-07-09T01:42:14;34.33;;;4.47;;
58460;SDS011;45558;37.752;-97.822;2023-07-09T01:44:40;45.55;;;7.13;;
58460;SDS011;45558;37.752;-97.822;2023-07-09T01:47:06;31.02;;;3.67;;
58460;SDS011;45558;37.752;-97.822;2023-07-09T01:49:31;23.77;;;4.88;;
58460;SDS011;45558;37.752;-97.822;2023-07-09T01:52:00;21.73;;;4.38;;
58460;SDS011;45558;37.752;-97.822;2023-07-09T01:54:30;23.05;;;4.65;;
58460;SDS011;45558;37.752;-97.822;2023-07-09T01:57:11;17.60;;;4.35;;
58460;SDS011;45558;37.752;-97.822;2023-07-09T01:59:53;20.50;;;4.38;;
58460;SDS011;45558;37.752;-97.822;2023-07-09T02:02:24;25.45;;;4.57;;
58460;SDS011;45558;37.752;-97.822;2023-07-09T02:04:51;34.85;;;5.40;;
58460;SDS011;45558;37.752;-97.822;2023-07-09T02:07:17;20.58;;;4.28;;
58460;SDS011;45558;37.752;-97.822;2023-07-09T02:09:43;27.60;;;5.25;;
58460;SDS011;45558;37.752;-97.822;2023-07-09T02:12:09;20.20;;;4.80;;
58460;SDS011;45558;37.752;-97.822;2023-07-09T02:14:36;17.77;;;5.43;;
58460;SDS011;45558;37.752;-97.822;2023-07-09T02:17:02;27.85;;;5.53;;
58460;SDS011;45558;37.752;-97.822;2023-07-09T02:19:28;32.95;;;6.07;;
58460;SDS011;45558;37.752;-97.822;2023-07-09T02:21:56;17.65;;;4.85;;
58460;SDS011;45558;37.752;-97.822;2023-07-09T02:24:23;29.08;;;6.68;;
58460;SDS011;45558;37.752;-97.822;2023-07-09T02:26:56;22.60;;;5.80;;
58460;SDS011;45558;37.752;-97.822;2023-07-09T02:29:24;38.05;;;5.07;;
58460;SDS011;45558;37.752;-97.822;2023-07-09T02:31:51;24.95;;;4.97;;
58460;SDS011;45558;37.752;-97.822;2023-07-09T02:34:20;23.80;;;6.03;;
58460;SDS011;45558;37.752;-97.822;2023-07-09T02:36:46;21.10;;;6.25;;
58460;SDS011;45558;37.752;-97.822;2023-07-09T02:39:13;29.35;;;5.70;;
58460;SDS011;45558;37.752;-97.822;2023-07-09T02:41:39;27.63;;;6.40;;
58460;SDS011;45558;37.752;-97.822;2023-07-09T02:44:05;21.05;;;4.90;;
58460;SDS011;45558;37.752;-97.822;2023-07-09T02:46:31;22.00;;;5.15;;
58460;SDS011;45558;37.752;-97.822;2023-07-09T02:48:56;24.10;;;5.32;;
58460;SDS011;45558;37.752;-97.822;2023-07-09T02:51:22;23.75;;;4.50;;
58460;SDS011;45558;37.752;-97.822;2023-07-09T02:53:49;26.25;;;4.68;;
58460;SDS011;45558;37.752;-97.822;2023-07-09T02:56:14;23.85;;;4.38;;
58460;SDS011;45558;37.752;-97.822;2023-07-09T02:58:40;16.10;;;4.35;;
58460;SDS011;45558;37.752;-97.822;2023-07-09T03:01:05;15.00;;;4.72;;
58460;SDS011;45558;37.752;-97.822;2023-07-09T03:03:31;27.83;;;5.85;;
58460;SDS011;45558;37.752;-97.822;2023-07-09T03:05:56;14.48;;;4.22;;
58460;SDS011;45558;37.752;-97.822;2023-07-09T03:08:22;16.40;;;4.63;;
58460;SDS011;45558;37.752;-97.822;2023-07-09T03:10:48;20.38;;;4.97;;
58460;SDS011;45558;37.752;-97.822;2023-07-09T03:13:13;16.65;;;4.75;;
58460;SDS011;45558;37.752;-97.822;2023-07-09T03:15:38;21.48;;;4.38;;
58460;SDS011;45558;37.752;-97.822;2023-07-09T03:18:04;17.23;;;4.45;;
58460;SDS011;45558;37.752;-97.822;2023-07-09T03:20:29;17.25;;;4.10;;
58460;SDS011;45558;37.752;-97.822;2023-07-09T03:22:55;14.88;;;4.68;;
58460;SDS011;45558;37.752;-97.822;2023-07-09T03:25:20;15.85;;;4.40;;
58460;SDS011;45558;37.752;-97.822;2023-07-09T03:27:48;24.00;;;4.28;;
58460;SDS011;45558;37.752;-97.822;2023-07-09T03:30:14;20.08;;;4.40;;
58460;SDS011;45558;37.752;-97.822;2023-07-09T03:32:40;26.65;;;5.93;;
58460;SDS011;45558;37.752;-97.822;2023-07-09T03:35:05;21.17;;;5.22;;
58460;SDS011;45558;37.752;-97.822;2023-07-09T03:37:33;31.65;;;6.57;;
58460;SDS011;45558;37.752;-97.822;2023-07-09T03:39:59;20.55;;;4.97;;
58460;SDS011;45558;37.752;-97.822;2023-07-09T03:42:24;19.75;;;5.20;;
58460;SDS011;45558;37.752;-97.822;2023-07-09T03:44:50;27.20;;;5.18;;
58460;SDS011;45558;37.752;-97.822;2023-07-09T03:47:15;20.55;;;4.80;;
58460;SDS011;45558;37.752;-97.822;2023-07-09T03:49:43;19.92;;;5.32;;
58460;SDS011;45558;37.752;-97.822;2023-07-09T03:52:08;18.90;;;5.00;;
58460;SDS011;45558;37.752;-97.822;2023-07-09T03:54:34;23.00;;;5.10;;
58460;SDS011;45558;37.752;-97.822;2023-07-09T03:56:59;33.88;;;5.53;;
58460;SDS011;45558;37.752;-97.822;2023-07-09T03:59:24;19.70;;;6.28;;
58460;SDS011;45558;37.752;-97.822;2023-07-09T04:01:50;30.83;;;5.90;;
58460;SDS011;45558;37.752;-97.822;2023-07-09T04:04:15;20.52;;;5.07;;
58460;SDS011;45558;37.752;-97.822;2023-07-09T04:06:45;14.43;;;4.27;;
58460;SDS011;45558;37.752;-97.822;2023-07-09T04:09:11;23.77;;;6.50;;
58460;SDS011;45558;37.752;-97.822;2023-07-09T04:11:36;29.77;;;5.10;;
58460;SDS011;45558;37.752;-97.822;2023-07-09T04:14:02;31.52;;;5.10;;
58460;SDS011;45558;37.752;-97.822;2023-07-09T04:16:27;28.60;;;5.55;;
58460;SDS011;45558;37.752;-97.822;2023-07-09T04:18:52;30.05;;;4.97;;
58460;SDS011;45558;37.752;-97.822;2023-07-09T04:21:18;17.40;;;4.63;;
58460;SDS011;45558;37.752;-97.822;2023-07-09T04:23:44;23.38;;;4.07;;
58460;SDS011;45558;37.752;-97.822;2023-07-09T04:26:12;23.50;;;5.07;;
58460;SDS011;45558;37.752;-97.822;2023-07-09T04:28:38;29.83;;;6.85;;
58460;SDS011;45558;37.752;-97.822;2023-07-09T04:31:03;29.40;;;4.30;;
58460;SDS011;45558;37.752;-97.822;2023-07-09T04:33:29;26.85;;;4.53;;
58460;SDS011;45558;37.752;-97.822;2023-07-09T04:35:55;21.60;;;4.43;;
58460;SDS011;45558;37.752;-97.822;2023-07-09T04:38:20;21.95;;;4.63;;
58460;SDS011;45558;37.752;-97.822;2023-07-09T04:40:46;20.33;;;4.32;;
58460;SDS011;45558;37.752;-97.822;2023-07-09T04:43:12;26.80;;;4.03;;
58460;SDS011;45558;37.752;-97.822;2023-07-09T04:45:37;21.05;;;4.07;;
58460;SDS011;45558;37.752;-97.822;2023-07-09T04:48:03;14.27;;;3.80;;
58460;SDS011;45558;37.752;-97.822;2023-07-09T04:50:28;18.33;;;3.58;;
58460;SDS011;45558;37.752;-97.822;2023-07-09T04:52:54;18.08;;;4.28;;
58460;SDS011;45558;37.752;-97.822;2023-07-09T04:55:19;21.88;;;4.22;;
58460;SDS011;45558;37.752;-97.822;2023-07-09T04:57:45;20.40;;;4.70;;
58460;SDS011;45558;37.752;-97.822;2023-07-09T05:00:11;19.20;;;3.92;;
58460;SDS011;45558;37.752;-97.822;2023-07-09T05:02:37;23.73;;;3.67;;
58460;SDS011;45558;37.752;-97.822;2023-07-09T05:05:02;23.92;;;3.33;;
58460;SDS011;45558;37.752;-97.822;2023-07-09T05:07:28;26.50;;;3.65;;
58460;SDS011;45558;37.752;-97.822;2023-07-09T05:09:54;22.92;;;4.30;;
58460;SDS011;45558;37.752;-97.822;2023-07-09T05:12:19;15.63;;;3.22;;
58460;SDS011;45558;37.752;-97.822;2023-07-09T05:14:46;24.35;;;3.60;;
58460;SDS011;45558;37.752;-97.822;2023-07-09T05:17:11;23.02;;;3.63;;
58460;SDS011;45558;37.752;-97.822;2023-07-09T05:19:37;21.92;;;3.33;;
58460;SDS011;45558;37.752;-97.822;2023-07-09T05:22:02;24.77;;;4.20;;
58460;SDS011;45558;37.752;-97.822;2023-07-09T05:24:28;18.48;;;3.13;;
58460;SDS011;45558;37.752;-97.822;2023-07-09T05:26:53;16.73;;;3.03;;
58460;SDS011;45558;37.752;-97.822;2023-07-09T05:29:19;35.22;;;3.50;;
58460;SDS011;45558;37.752;-97.822;2023-07-09T05:31:44;22.52;;;3.88;;
58460;SDS011;45558;37.752;-97.822;2023-07-09T05:34:09;16.58;;;3.10;;
58460;SDS011;45558;37.752;-97.822;2023-07-09T05:36:35;24.60;;;4.25;;
58460;SDS011;45558;37.752;-97.822;2023-07-09T05:39:00;16.98;;;2.67;;
58460;SDS011;45558;37.752;-97.822;2023-07-09T05:41:25;19.65;;;3.60;;
58460;SDS011;45558;37.752;-97.822;2023-07-09T05:43:51;20.58;;;3.58;;
58460;SDS011;45558;37.752;-97.822;2023-07-09T05:46:18;17.40;;;3.58;;
58460;SDS011;45558;37.752;-97.822;2023-07-09T05:48:44;25.58;;;3.63;;
58460;SDS011;45558;37.752;-97.822;2023-07-09T05:51:09;18.95;;;3.40;;
58460;SDS011;45558;37.752;-97.822;2023-07-09T05:53:35;16.67;;;3.40;;
58460;SDS011;45558;37.752;-97.822;2023-07-09T05:56:00;22.73;;;2.92;;
58460;SDS011;45558;37.752;-97.822;2023-07-09T05:58:26;22.42;;;4.03;;
58460;SDS011;45558;37.752;-97.822;2023-07-09T06:00:53;18.90;;;4.15;;
58460;SDS011;45558;37.752;-97.822;2023-07-09T06:03:22;22.45;;;3.63;;
58460;SDS011;45558;37.752;-97.822;2023-07-09T06:05:49;21.50;;;4.00;;
58460;SDS011;45558;37.752;-97.822;2023-07-09T06:08:23;21.75;;;4.43;;
58460;SDS011;45558;37.752;-97.822;2023-07-09T06:11:09;21.95;;;3.03;;
58460;SDS011;45558;37.752;-97.822;2023-07-09T06:13:34;20.77;;;3.97;;
58460;SDS011;45558;37.752;-97.822;2023-07-09T06:16:00;23.80;;;3.72;;
58460;SDS011;45558;37.752;-97.822;2023-07-09T06:18:26;19.42;;;3.15;;
58460;SDS011;45558;37.752;-97.822;2023-07-09T06:20:56;26.27;;;3.65;;
58460;SDS011;45558;37.752;-97.822;2023-07-09T06:23:23;19.30;;;4.25;;
58460;SDS011;45558;37.752;-97.822;2023-07-09T06:25:49;22.50;;;4.20;;
58460;SDS011;45558;37.752;-97.822;2023-07-09T06:28:15;17.90;;;4.07;;
58460;SDS011;45558;37.752;-97.822;2023-07-09T06:30:42;19.25;;;4.75;;
58460;SDS011;45558;37.752;-97.822;2023-07-09T06:33:08;28.45;;;3.67;;
58460;SDS011;45558;37.752;-97.822;2023-07-09T06:35:34;22.50;;;4.65;;
58460;SDS011;45558;37.752;-97.822;2023-07-09T06:38:00;23.27;;;3.60;;
58460;SDS011;45558;37.752;-97.822;2023-07-09T06:40:25;20.90;;;3.78;;
58460;SDS011;45558;37.752;-97.822;2023-07-09T06:42:51;12.77;;;1.73;;
58460;SDS011;45558;37.752;-97.822;2023-07-09T06:45:16;12.00;;;1.25;;
58460;SDS011;45558;37.752;-97.822;2023-07-09T06:47:42;9.77;;;1.63;;
58460;SDS011;45558;37.752;-97.822;2023-07-09T06:50:07;6.05;;;0.85;;
58460;SDS011;45558;37.752;-97.822;2023-07-09T06:52:33;2.97;;;0.50;;
58460;SDS011;45558;37.752;-97.822;2023-07-09T06:54:58;2.65;;;0.75;;
58460;SDS011;45558;37.752;-97.822;2023-07-09T06:57:24;5.35;;;1.98;;
58460;SDS011;45558;37.752;-97.822;2023-07-09T06:59:49;12.77;;;1.60;;
58460;SDS011;45558;37.752;-97.822;2023-07-09T07:02:14;9.38;;;1.30;;
58460;SDS011;45558;37.752;-97.822;2023-07-09T07:04:40;7.75;;;1.65;;
58460;SDS011;45558;37.752;-97.822;2023-07-09T07:07:07;2.90;;;1.05;;
58460;SDS011;45558;37.752;-97.822;2023-07-09T07:09:32;4.20;;;1.50;;
58460;SDS011;45558;37.752;-97.822;2023-07-09T07:11:58;2.85;;;0.77;;
58460;SDS011;45558;37.752;-97.822;2023-07-09T07:14:23;9.95;;;5.63;;
58460;SDS011;45558;37.752;-97.822;2023-07-09T07:16:48;4.13;;;1.20;;
58460;SDS011;45558;37.752;-97.822;2023-07-09T07:19:14;4.32;;;1.02;;
58460;SDS011;45558;37.752;-97.822;2023-07-09T07:21:40;8.02;;;1.13;;
58460;SDS011;45558;37.752;-97.822;2023-07-09T07:24:05;1.23;;;0.98;;
58460;SDS011;45558;37.752;-97.822;2023-07-09T07:26:31;3.33;;;1.00;;
58460;SDS011;45558;37.752;-97.822;2023-07-09T07:28:56;2.67;;;0.70;;
58460;SDS011;45558;37.752;-97.822;2023-07-09T07:31:21;4.97;;;0.80;;
58460;SDS011;45558;37.752;-97.822;2023-07-09T07:33:47;3.72;;;2.70;;
58460;SDS011;45558;37.752;-97.822;2023-07-09T07:36:13;1.60;;;0.52;;
58460;SDS011;45558;37.752;-97.822;2023-07-09T07:38:38;3.97;;;1.20;;
58460;SDS011;45558;37.752;-97.822;2023-07-09T07:41:04;1.45;;;0.68;;
58460;SDS011;45558;37.752;-97.822;2023-07-09T07:43:29;1.48;;;0.55;;
58460;SDS011;45558;37.752;-97.822;2023-07-09T07:45:55;0.82;;;0.30;;
58460;SDS011;45558;37.752;-97.822;2023-07-09T07:48:20;2.42;;;0.68;;
58460;SDS011;45558;37.752;-97.822;2023-07-09T07:50:45;1.92;;;0.77;;
58460;SDS011;45558;37.752;-97.822;2023-07-09T07:53:13;0.40;;;0.40;;
58460;SDS011;45558;37.752;-97.822;2023-07-09T07:55:40;3.75;;;0.68;;
58460;SDS011;45558;37.752;-97.822;2023-07-09T07:58:05;2.03;;;1.33;;
58460;SDS011;45558;37.752;-97.822;2023-07-09T08:00:31;1.80;;;0.70;;
58460;SDS011;45558;37.752;-97.822;2023-07-09T08:02:57;1.27;;;0.80;;
58460;SDS011;45558;37.752;-97.822;2023-07-09T08:05:22;1.92;;;0.57;;
58460;SDS011;45558;37.752;-97.822;2023-07-09T08:07:48;0.47;;;0.30;;
58460;SDS011;45558;37.752;-97.822;2023-07-09T08:10:14;2.03;;;0.40;;
58460;SDS011;45558;37.752;-97.822;2023-07-09T08:12:40;1.55;;;0.60;;
58460;SDS011;45558;37.752;-97.822;2023-07-09T08:15:06;2.08;;;0.47;;
58460;SDS011;45558;37.752;-97.822;2023-07-09T08:17:32;4.30;;;3.10;;
58460;SDS011;45558;37.752;-97.822;2023-07-09T08:19:57;4.93;;;1.45;;
58460;SDS011;45558;37.752;-97.822;2023-07-09T08:22:23;4.47;;;1.38;;
58460;SDS011;45558;37.752;-97.822;2023-07-09T08:24:49;1.65;;;1.52;;
58460;SDS011;45558;37.752;-97.822;2023-07-09T08:27:16;2.65;;;1.10;;
58460;SDS011;45558;37.752;-97.822;2023-07-09T08:29:41;2.00;;;0.50;;
58460;SDS011;45558;37.752;-97.822;2023-07-09T08:32:07;1.15;;;0.25;;
58460;SDS011;45558;37.752;-97.822;2023-07-09T08:34:33;1.55;;;0.30;;
58460;SDS011;45558;37.752;-97.822;2023-07-09T08:36:59;1.85;;;0.40;;
58460;SDS011;45558;37.752;-97.822;2023-07-09T08:39:26;0.28;;;0.20;;
58460;SDS011;45558;37.752;-97.822;2023-07-09T08:41:57;4.28;;;0.90;;
58460;SDS011;45558;37.752;-97.822;2023-07-09T08:44:32;4.13;;;0.40;;
58460;SDS011;45558;37.752;-97.822;2023-07-09T08:52:24;1.90;;;0.30;;
58460;SDS011;45558;37.752;-97.822;2023-07-09T08:54:57;1.73;;;0.38;;
58460;SDS011;45558;37.752;-97.822;2023-07-09T08:57:29;1.10;;;0.40;;
58460;SDS011;45558;37.752;-97.822;2023-07-09T09:00:14;1.38;;;0.38;;
58460;SDS011;45558;37.752;-97.822;2023-07-09T09:02:44;0.60;;;0.25;;
58460;SDS011;45558;37.752;-97.822;2023-07-09T09:05:14;2.35;;;0.55;;
58460;SDS011;45558;37.752;-97.822;2023-07-09T09:07:43;6.30;;;1.23;;
58460;SDS011;45558;37.752;-97.822;2023-07-09T09:10:19;12.52;;;1.35;;
58460;SDS011;45558;37.752;-97.822;2023-07-09T09:13:31;8.60;;;1.88;;
58460;SDS011;45558;37.752;-97.822;2023-07-09T09:15:44;4.35;;;0.45;;
58460;SDS011;45558;37.752;-97.822;2023-07-09T09:18:19;1.20;;;0.43;;
58460;SDS011;45558;37.752;-97.822;2023-07-09T09:23:49;3.03;;;0.60;;
58460;SDS011;45558;37.752;-97.822;2023-07-09T09:26:24;1.67;;;0.47;;
58460;SDS011;45558;37.752;-97.822;2023-07-09T09:28:49;3.30;;;0.63;;
58460;SDS011;45558;37.752;-97.822;2023-07-09T09:31:15;5.28;;;0.40;;
58460;SDS011;45558;37.752;-97.822;2023-07-09T09:33:43;1.95;;;0.32;;
58460;SDS011;45558;37.752;-97.822;2023-07-09T09:36:17;4.57;;;0.70;;
58460;SDS011;45558;37.752;-97.822;2023-07-09T09:38:46;3.40;;;0.40;;
58460;SDS011;45558;37.752;-97.822;2023-07-09T09:41:13;1.33;;;0.70;;
58460;SDS011;45558;37.752;-97.822;2023-07-09T09:43:44;5.05;;;0.57;;
58460;SDS011;45558;37.752;-97.822;2023-07-09T09:46:16;3.90;;;1.13;;
58460;SDS011;45558;37.752;-97.822;2023-07-09T09:48:48;6.63;;;0.88;;
58460;SDS011;45558;37.752;-97.822;2023-07-09T09:51:15;2.17;;;0.60;;
58460;SDS011;45558;37.752;-97.822;2023-07-09T09:53:47;4.80;;;1.05;;
58460;SDS011;45558;37.752;-97.822;2023-07-09T09:56:27;2.90;;;0.47;;
58460;SDS011;45558;37.752;-97.822;2023-07-09T09:58:57;2.00;;;0.50;;
58460;SDS011;45558;37.752;-97.822;2023-07-09T10:01:26;7.30;;;0.57;;
58460;SDS011;45558;37.752;-97.822;2023-07-09T10:03:55;1.93;;;0.33;;
58460;SDS011;45558;37.752;-97.822;2023-07-09T10:13:55;3.30;;;0.70;;
58460;SDS011;45558;37.752;-97.822;2023-07-09T10:16:27;4.47;;;0.50;;
58460;SDS011;45558;37.752;-97.822;2023-07-09T10:30:20;2.80;;;0.80;;
58460;SDS011;45558;37.752;-97.822;2023-07-09T10:35:17;5.50;;;0.47;;
58460;SDS011;45558;37.752;-97.822;2023-07-09T10:40:43;2.63;;;0.80;;
58460;SDS011;45558;37.752;-97.822;2023-07-09T10:43:14;6.35;;;0.40;;
58460;SDS011;45558;37.752;-97.822;2023-07-09T10:45:44;1.60;;;0.40;;
58460;SDS011;45558;37.752;-97.822;2023-07-09T10:48:14;3.67;;;0.40;;
58460;SDS011;45558;37.752;-97.822;2023-07-09T10:50:47;2.55;;;0.60;;
58460;SDS011;45558;37.752;-97.822;2023-07-09T10:53:16;4.78;;;0.80;;
58460;SDS011;45558;37.752;-97.822;2023-07-09T10:55:52;3.40;;;0.50;;
58460;SDS011;45558;37.752;-97.822;2023-07-09T11:00:52;4.28;;;0.60;;
58460;SDS011;45558;37.752;-97.822;2023-07-09T11:03:35;1.25;;;0.50;;
58460;SDS011;45558;37.752;-97.822;2023-07-09T11:06:04;3.90;;;0.68;;
58460;SDS011;45558;37.752;-97.822;2023-07-09T11:08:34;2.38;;;0.68;;
58460;SDS011;45558;37.752;-97.822;2023-07-09T11:11:06;2.65;;;0.50;;
58460;SDS011;45558;37.752;-97.822;2023-07-09T11:13:37;4.85;;;0.75;;
58460;SDS011;45558;37.752;-97.822;2023-07-09T11:16:06;5.82;;;0.47;;
58460;SDS011;45558;37.752;-97.822;2023-07-09T11:18:32;3.75;;;0.40;;
58460;SDS011;45558;37.752;-97.822;2023-07-09T11:21:06;4.78;;;0.40;;
58460;SDS011;45558;37.752;-97.822;2023-07-09T11:23:43;3.22;;;0.50;;
58460;SDS011;45558;37.752;-97.822;2023-07-09T11:28:39;2.67;;;1.27;;
58460;SDS011;45558;37.752;-97.822;2023-07-09T11:31:06;6.13;;;0.40;;
58460;SDS011;45558;37.752;-97.822;2023-07-09T11:36:32;5.10;;;0.95;;
58460;SDS011;45558;37.752;-97.822;2023-07-09T11:38:59;5.65;;;0.88;;
58460;SDS011;45558;37.752;-97.822;2023-07-09T11:41:26;6.50;;;1.27;;
58460;SDS011;45558;37.752;-97.822;2023-07-09T11:44:10;4.95;;;0.93;;
58460;SDS011;45558;37.752;-97.822;2023-07-09T11:47:30;4.55;;;0.60;;
58460;SDS011;45558;37.752;-97.822;2023-07-09T11:49:47;8.85;;;1.88;;
58460;SDS011;45558;37.752;-97.822;2023-07-09T11:54:41;2.60;;;0.88;;
58460;SDS011;45558;37.752;-97.822;2023-07-09T11:57:10;6.05;;;1.23;;
58460;SDS011;45558;37.752;-97.822;2023-07-09T11:59:42;10.20;;;0.73;;
58460;SDS011;45558;37.752;-97.822;2023-07-09T12:02:12;1.80;;;0.40;;
58460;SDS011;45558;37.752;-97.822;2023-07-09T12:04:48;5.30;;;0.73;;
58460;SDS011;45558;37.752;-97.822;2023-07-09T12:07:15;10.80;;;1.25;;
58460;SDS011;45558;37.752;-97.822;2023-07-09T12:09:43;1.80;;;0.40;;
58460;SDS011;45558;37.752;-97.822;2023-07-09T12:12:19;2.85;;;0.47;;
58460;SDS011;45558;37.752;-97.822;2023-07-09T12:14:51;5.50;;;0.82;;
58460;SDS011;45558;37.752;-97.822;2023-07-09T12:17:17;3.28;;;0.50;;
58460;SDS011;45558;37.752;-97.822;2023-07-09T12:19:43;2.28;;;0.57;;
58460;SDS011;45558;37.752;-97.822;2023-07-09T12:22:16;3.13;;;0.65;;
58460;SDS011;45558;37.752;-97.822;2023-07-09T12:24:44;1.17;;;0.52;;
58460;SDS011;45558;37.752;-97.822;2023-07-09T12:27:21;11.02;;;3.60;;
58460;SDS011;45558;37.752;-97.822;2023-07-09T12:29:47;8.65;;;1.20;;
58460;SDS011;45558;37.752;-97.822;2023-07-09T12:32:15;4.53;;;0.60;;
58460;SDS011;45558;37.752;-97.822;2023-07-09T12:34:41;4.72;;;0.45;;
58460;SDS011;45558;37.752;-97.822;2023-07-09T12:37:16;3.67;;;0.60;;
58460;SDS011;45558;37.752;-97.822;2023-07-09T12:39:42;1.73;;;0.17;;
58460;SDS011;45558;37.752;-97.822;2023-07-09T12:42:18;2.00;;;0.55;;
58460;SDS011;45558;37.752;-97.822;2023-07-09T12:44:46;0.65;;;0.28;;
58460;SDS011;45558;37.752;-97.822;2023-07-09T12:47:14;1.85;;;0.50;;
58460;SDS011;45558;37.752;-97.822;2023-07-09T12:49:40;4.75;;;0.50;;
58460;SDS011;45558;37.752;-97.822;2023-07-09T12:52:11;1.83;;;0.40;;
58460;SDS011;45558;37.752;-97.822;2023-07-09T12:54:39;4.45;;;0.60;;
58460;SDS011;45558;37.752;-97.822;2023-07-09T12:57:10;1.85;;;0.50;;
58460;SDS011;45558;37.752;-97.822;2023-07-09T12:59:40;5.88;;;4.15;;
58460;SDS011;45558;37.752;-97.822;2023-07-09T13:02:28;2.15;;;0.80;;
58460;SDS011;45558;37.752;-97.822;2023-07-09T13:05:01;3.85;;;0.40;;
58460;SDS011;45558;37.752;-97.822;2023-07-09T13:07:32;2.28;;;0.75;;
58460;SDS011;45558;37.752;-97.822;2023-07-09T13:10:04;2.47;;;0.80;;
58460;SDS011;45558;37.752;-97.822;2023-07-09T13:15:18;5.10;;;0.55;;
58460;SDS011;45558;37.752;-97.822;2023-07-09T13:18:01;3.85;;;0.98;;
58460;SDS011;45558;37.752;-97.822;2023-07-09T13:20:29;2.72;;;0.80;;
58460;SDS011;45558;37.752;-97.822;2023-07-09T13:22:56;3.83;;;0.68;;
58460;SDS011;45558;37.752;-97.822;2023-07-09T13:25:21;4.07;;;1.13;;
58460;SDS011;45558;37.752;-97.822;2023-07-09T13:27:47;8.68;;;0.63;;
58460;SDS011;45558;37.752;-97.822;2023-07-09T13:30:12;3.88;;;0.68;;
58460;SDS011;45558;37.752;-97.822;2023-07-09T13:32:38;5.30;;;0.93;;
58460;SDS011;45558;37.752;-97.822;2023-07-09T13:35:12;5.85;;;1.23;;
58460;SDS011;45558;37.752;-97.822;2023-07-09T13:37:39;4.97;;;0.55;;
58460;SDS011;45558;37.752;-97.822;2023-07-09T13:40:04;3.20;;;0.70;;
58460;SDS011;45558;37.752;-97.822;2023-07-09T13:42:30;2.80;;;1.00;;
58460;SDS011;45558;37.752;-97.822;2023-07-09T13:44:57;8.38;;;3.20;;
58460;SDS011;45558;37.752;-97.822;2023-07-09T13:47:24;3.70;;;0.90;;
58460;SDS011;45558;37.752;-97.822;2023-07-09T13:49:49;1.55;;;0.60;;
58460;SDS011;45558;37.752;-97.822;2023-07-09T13:52:16;2.88;;;0.60;;
58460;SDS011;45558;37.752;-97.822;2023-07-09T13:54:46;1.85;;;0.55;;
58460;SDS011;45558;37.752;-97.822;2023-07-09T13:57:14;2.15;;;0.50;;
58460;SDS011;45558;37.752;-97.822;2023-07-09T13:59:44;1.98;;;0.65;;
58460;SDS011;45558;37.752;-97.822;2023-07-09T14:02:21;1.75;;;0.40;;
58460;SDS011;45558;37.752;-97.822;2023-07-09T14:04:49;1.45;;;0.30;;
58460;SDS011;45558;37.752;-97.822;2023-07-09T14:07:34;3.45;;;0.68;;
58460;SDS011;45558;37.752;-97.822;2023-07-09T14:10:01;2.45;;;0.50;;
58460;SDS011;45558;37.752;-97.822;2023-07-09T14:12:29;3.92;;;0.82;;
58460;SDS011;45558;37.752;-97.822;2023-07-09T14:14:55;2.60;;;0.30;;
58460;SDS011;45558;37.752;-97.822;2023-07-09T14:17:24;2.47;;;0.60;;
58460;SDS011;45558;37.752;-97.822;2023-07-09T14:19:50;2.63;;;0.82;;
58460;SDS011;45558;37.752;-97.822;2023-07-09T14:22:35;2.67;;;0.70;;
58460;SDS011;45558;37.752;-97.822;2023-07-09T14:25:02;3.72;;;0.57;;
58460;SDS011;45558;37.752;-97.822;2023-07-09T14:27:28;2.13;;;0.60;;
58460;SDS011;45558;37.752;-97.822;2023-07-09T14:29:55;2.20;;;0.50;;
58460;SDS011;45558;37.752;-97.822;2023-07-09T14:32:30;2.42;;;0.55;;
58460;SDS011;45558;37.752;-97.822;2023-07-09T14:35:09;0.68;;;0.52;;
58460;SDS011;45558;37.752;-97.822;2023-07-09T14:37:38;1.63;;;0.32;;
58460;SDS011;45558;37.752;-97.822;2023-07-09T14:40:04;3.40;;;0.43;;
58460;SDS011;45558;37.752;-97.822;2023-07-09T14:42:30;4.28;;;0.70;;
58460;SDS011;45558;37.752;-97.822;2023-07-09T14:44:55;2.83;;;0.50;;
58460;SDS011;45558;37.752;-97.822;2023-07-09T14:47:21;2.13;;;0.50;;
58460;SDS011;45558;37.752;-97.822;2023-07-09T14:49:47;1.98;;;0.32;;
58460;SDS011;45558;37.752;-97.822;2023-07-09T14:52:21;2.03;;;0.50;;
58460;SDS011;45558;37.752;-97.822;2023-07-09T14:54:47;3.65;;;0.50;;
58460;SDS011;45558;37.752;-97.822;2023-07-09T14:57:17;1.00;;;0.38;;
58460;SDS011;45558;37.752;-97.822;2023-07-09T14:59:45;3.72;;;0.55;;
58460;SDS011;45558;37.752;-97.822;2023-07-09T15:02:18;1.85;;;0.50;;
58460;SDS011;45558;37.752;-97.822;2023-07-09T15:04:56;3.78;;;0.60;;
58460;SDS011;45558;37.752;-97.822;2023-07-09T15:07:21;2.08;;;0.50;;
58460;SDS011;45558;37.752;-97.822;2023-07-09T15:09:47;3.65;;;1.10;;
58460;SDS011;45558;37.752;-97.822;2023-07-09T15:12:16;4.22;;;0.52;;
58460;SDS011;45558;37.752;-97.822;2023-07-09T15:14:45;3.85;;;0.43;;
58460;SDS011;45558;37.752;-97.822;2023-07-09T15:17:11;2.13;;;0.70;;
58460;SDS011;45558;37.752;-97.822;2023-07-09T15:19:37;7.72;;;0.47;;